sensor_id;sensor_type;location;lat;lon;timestamp;temperature;humidity
17415;DHT22;8825;48.086;16.426;2023-03-14T00:02:00;12.50;53.80
17415;DHT22;8825;48.086;16.426;2023-03-14T00:04:27;12.50;53.80
17415;DHT22;8825;48.086;16.426;2023-03-14T00:06:55;12.60;53.90
17415;DHT22;8825;48.086;16.426;2023-03-14T00:09:22;12.50;53.90
17415;DHT22;8825;48.086;16.426;2023-03-14T00:11:50;12.50;54.00
17415;DHT22;8825;48.086;16.426;2023-03-14T00:14:17;12.50;54.10
17415;DHT22;8825;48.086;16.426;2023-03-14T00:16:48;12.40;54.20
17415;DHT22;8825;48.086;16.426;2023-03-14T00:19:15;12.40;54.30
17415;DHT22;8825;48.086;16.426;2023-03-14T00:21:43;12.40;54.30
17415;DHT22;8825;48.086;16.426;2023-03-14T00:24:10;12.40;54.40
17415;DHT22;8825;48.086;16.426;2023-03-14T00:26:38;12.30;54.40
17415;DHT22;8825;48.086;16.426;2023-03-14T00:29:06;12.30;54.40
17415;DHT22;8825;48.086;16.426;2023-03-14T00:31:33;12.30;54.40
17415;DHT22;8825;48.086;16.426;2023-03-14T00:34:02;12.30;54.40
17415;DHT22;8825;48.086;16.426;2023-03-14T00:36:30;12.30;54.40
17415;DHT22;8825;48.086;16.426;2023-03-14T00:38:57;12.30;54.40
17415;DHT22;8825;48.086;16.426;2023-03-14T00:41:25;12.30;54.30
17415;DHT22;8825;48.086;16.426;2023-03-14T00:43:52;12.30;54.90
17415;DHT22;8825;48.086;16.426;2023-03-14T00:46:20;12.20;54.30
17415;DHT22;8825;48.086;16.426;2023-03-14T00:48:48;12.30;54.40
17415;DHT22;8825;48.086;16.426;2023-03-14T00:51:16;12.30;54.40
17415;DHT22;8825;48.086;16.426;2023-03-14T00:53:44;12.30;54.30
17415;DHT22;8825;48.086;16.426;2023-03-14T00:56:13;12.30;54.20
17415;DHT22;8825;48.086;16.426;2023-03-14T00:58:40;12.30;54.20
17415;DHT22;8825;48.086;16.426;2023-03-14T01:01:14;12.30;54.10
17415;DHT22;8825;48.086;16.426;2023-03-14T01:03:41;12.30;54.20
17415;DHT22;8825;48.086;16.426;2023-03-14T01:06:11;12.20;54.10
17415;DHT22;8825;48.086;16.426;2023-03-14T01:08:39;12.30;54.20
17415;DHT22;8825;48.086;16.426;2023-03-14T01:11:08;12.20;54.20
17415;DHT22;8825;48.086;16.426;2023-03-14T01:13:36;12.30;54.20
17415;DHT22;8825;48.086;16.426;2023-03-14T01:16:06;12.20;54.20
17415;DHT22;8825;48.086;16.426;2023-03-14T01:18:35;12.20;54.30
17415;DHT22;8825;48.086;16.426;2023-03-14T01:21:11;12.20;54.30
17415;DHT22;8825;48.086;16.426;2023-03-14T01:23:33;12.20;54.20
17415;DHT22;8825;48.086;16.426;2023-03-14T01:26:00;12.30;54.20
17415;DHT22;8825;48.086;16.426;2023-03-14T01:28:28;12.20;54.20
17415;DHT22;8825;48.086;16.426;2023-03-14T01:30:56;12.20;54.20
17415;DHT22;8825;48.086;16.426;2023-03-14T01:33:23;12.20;54.20
17415;DHT22;8825;48.086;16.426;2023-03-14T01:35:51;12.20;54.20
17415;DHT22;8825;48.086;16.426;2023-03-14T01:38:18;12.20;54.20
17415;DHT22;8825;48.086;16.426;2023-03-14T01:40:46;12.20;54.60
17415;DHT22;8825;48.086;16.426;2023-03-14T01:43:16;12.20;54.30
17415;DHT22;8825;48.086;16.426;2023-03-14T01:56:53;12.00;54.20
17415;DHT22;8825;48.086;16.426;2023-03-14T01:59:21;12.00;54.20
17415;DHT22;8825;48.086;16.426;2023-03-14T02:01:49;11.90;54.10
17415;DHT22;8825;48.086;16.426;2023-03-14T02:04:19;11.90;54.20
17415;DHT22;8825;48.086;16.426;2023-03-14T02:09:27;11.80;54.20
17415;DHT22;8825;48.086;16.426;2023-03-14T02:11:55;11.70;54.10
17415;DHT22;8825;48.086;16.426;2023-03-14T02:14:33;11.50;53.90
17415;DHT22;8825;48.086;16.426;2023-03-14T02:17:01;11.40;53.60
17415;DHT22;8825;48.086;16.426;2023-03-14T02:19:56;11.30;53.50
17415;DHT22;8825;48.086;16.426;2023-03-14T02:22:11;11.10;53.50
17415;DHT22;8825;48.086;16.426;2023-03-14T02:24:46;11.00;53.50
17415;DHT22;8825;48.086;16.426;2023-03-14T02:27:17;10.90;53.80
17415;DHT22;8825;48.086;16.426;2023-03-14T02:32:17;10.60;54.10
17415;DHT22;8825;48.086;16.426;2023-03-14T02:34:47;10.50;54.40
17415;DHT22;8825;48.086;16.426;2023-03-14T02:37:16;10.40;54.60
17415;DHT22;8825;48.086;16.426;2023-03-14T02:39:46;10.30;54.90
17415;DHT22;8825;48.086;16.426;2023-03-14T02:42:16;10.30;55.20
17415;DHT22;8825;48.086;16.426;2023-03-14T02:44:52;10.20;55.50
17415;DHT22;8825;48.086;16.426;2023-03-14T02:47:27;10.20;55.80
17415;DHT22;8825;48.086;16.426;2023-03-14T02:49:53;10.10;56.00
17415;DHT22;8825;48.086;16.426;2023-03-14T02:52:21;10.10;56.20
17415;DHT22;8825;48.086;16.426;2023-03-14T02:54:49;10.00;56.40
17415;DHT22;8825;48.086;16.426;2023-03-14T02:57:16;10.00;56.70
17415;DHT22;8825;48.086;16.426;2023-03-14T02:59:44;9.90;57.00
17415;DHT22;8825;48.086;16.426;2023-03-14T03:02:11;9.90;57.30
17415;DHT22;8825;48.086;16.426;2023-03-14T03:04:39;9.80;57.40
17415;DHT22;8825;48.086;16.426;2023-03-14T03:07:06;9.80;57.80
17415;DHT22;8825;48.086;16.426;2023-03-14T03:09:34;9.70;58.00
17415;DHT22;8825;48.086;16.426;2023-03-14T03:12:01;9.80;58.20
17415;DHT22;8825;48.086;16.426;2023-03-14T03:14:29;9.70;58.30
17415;DHT22;8825;48.086;16.426;2023-03-14T03:16:56;9.70;58.40
17415;DHT22;8825;48.086;16.426;2023-03-14T03:19:24;9.70;58.50
17415;DHT22;8825;48.086;16.426;2023-03-14T03:21:51;9.70;58.80
17415;DHT22;8825;48.086;16.426;2023-03-14T03:24:19;9.70;59.50
17415;DHT22;8825;48.086;16.426;2023-03-14T03:26:46;9.70;59.00
17415;DHT22;8825;48.086;16.426;2023-03-14T03:29:14;9.70;59.70
17415;DHT22;8825;48.086;16.426;2023-03-14T03:31:42;9.70;59.20
17415;DHT22;8825;48.086;16.426;2023-03-14T03:34:12;9.70;59.30
17415;DHT22;8825;48.086;16.426;2023-03-14T03:36:40;9.70;59.50
17415;DHT22;8825;48.086;16.426;2023-03-14T03:39:08;9.60;59.70
17415;DHT22;8825;48.086;16.426;2023-03-14T03:41:35;9.70;59.90
17415;DHT22;8825;48.086;16.426;2023-03-14T03:44:03;9.60;60.10
17415;DHT22;8825;48.086;16.426;2023-03-14T03:46:32;9.60;60.10
17415;DHT22;8825;48.086;16.426;2023-03-14T03:49:00;9.70;60.30
17415;DHT22;8825;48.086;16.426;2023-03-14T03:51:28;9.70;60.50
17415;DHT22;8825;48.086;16.426;2023-03-14T03:53:56;9.70;60.40
17415;DHT22;8825;48.086;16.426;2023-03-14T03:56:24;9.80;60.20
17415;DHT22;8825;48.086;16.426;2023-03-14T03:58:51;9.80;60.00
17415;DHT22;8825;48.086;16.426;2023-03-14T04:01:19;9.90;59.90
17415;DHT22;8825;48.086;16.426;2023-03-14T04:03:47;9.90;59.60
17415;DHT22;8825;48.086;16.426;2023-03-14T04:06:15;10.00;59.40
17415;DHT22;8825;48.086;16.426;2023-03-14T04:08:42;10.10;59.20
17415;DHT22;8825;48.086;16.426;2023-03-14T04:11:10;10.20;58.90
17415;DHT22;8825;48.086;16.426;2023-03-14T04:13:37;10.20;58.60
17415;DHT22;8825;48.086;16.426;2023-03-14T04:16:28;10.30;58.30
17415;DHT22;8825;48.086;16.426;2023-03-14T04:18:36;10.40;58.20
17415;DHT22;8825;48.086;16.426;2023-03-14T04:21:03;10.40;57.90
17415;DHT22;8825;48.086;16.426;2023-03-14T04:23:31;10.50;57.80
17415;DHT22;8825;48.086;16.426;2023-03-14T04:25:59;10.60;57.60
17415;DHT22;8825;48.086;16.426;2023-03-14T04:28:27;10.60;57.50
17415;DHT22;8825;48.086;16.426;2023-03-14T04:30:55;10.70;57.40
17415;DHT22;8825;48.086;16.426;2023-03-14T04:33:22;10.80;57.00
17415;DHT22;8825;48.086;16.426;2023-03-14T04:35:53;10.80;56.80
17415;DHT22;8825;48.086;16.426;2023-03-14T04:38:20;11.00;56.60
17415;DHT22;8825;48.086;16.426;2023-03-14T04:40:48;11.00;56.40
17415;DHT22;8825;48.086;16.426;2023-03-14T04:43:15;11.10;56.30
17415;DHT22;8825;48.086;16.426;2023-03-14T04:45:43;11.10;56.20
17415;DHT22;8825;48.086;16.426;2023-03-14T04:48:10;11.20;56.00
17415;DHT22;8825;48.086;16.426;2023-03-14T04:50:39;11.20;55.90
17415;DHT22;8825;48.086;16.426;2023-03-14T04:53:06;11.20;55.80
17415;DHT22;8825;48.086;16.426;2023-03-14T04:55:34;11.30;55.70
17415;DHT22;8825;48.086;16.426;2023-03-14T04:58:01;11.30;55.60
17415;DHT22;8825;48.086;16.426;2023-03-14T05:00:29;11.30;55.50
17415;DHT22;8825;48.086;16.426;2023-03-14T05:02:57;11.20;55.30
17415;DHT22;8825;48.086;16.426;2023-03-14T05:05:24;11.20;55.40
17415;DHT22;8825;48.086;16.426;2023-03-14T05:07:52;11.10;55.40
17415;DHT22;8825;48.086;16.426;2023-03-14T05:10:20;11.10;55.40
17415;DHT22;8825;48.086;16.426;2023-03-14T05:12:47;11.10;55.30
17415;DHT22;8825;48.086;16.426;2023-03-14T05:15:15;11.00;55.40
17415;DHT22;8825;48.086;16.426;2023-03-14T05:17:42;10.90;55.60
17415;DHT22;8825;48.086;16.426;2023-03-14T05:20:10;10.70;56.00
17415;DHT22;8825;48.086;16.426;2023-03-14T05:22:42;10.50;56.30
17415;DHT22;8825;48.086;16.426;2023-03-14T05:25:10;10.40;56.40
17415;DHT22;8825;48.086;16.426;2023-03-14T05:27:37;10.30;56.50
17415;DHT22;8825;48.086;16.426;2023-03-14T05:30:06;10.30;56.70
17415;DHT22;8825;48.086;16.426;2023-03-14T05:32:33;10.20;57.20
17415;DHT22;8825;48.086;16.426;2023-03-14T05:35:01;10.00;57.30
17415;DHT22;8825;48.086;16.426;2023-03-14T05:37:28;9.90;57.60
17415;DHT22;8825;48.086;16.426;2023-03-14T05:39:56;9.80;57.80
17415;DHT22;8825;48.086;16.426;2023-03-14T05:42:23;9.70;57.90
17415;DHT22;8825;48.086;16.426;2023-03-14T05:44:51;9.70;58.00
17415;DHT22;8825;48.086;16.426;2023-03-14T05:47:18;9.70;58.20
17415;DHT22;8825;48.086;16.426;2023-03-14T05:49:46;9.60;58.40
17415;DHT22;8825;48.086;16.426;2023-03-14T05:52:13;9.60;58.40
17415;DHT22;8825;48.086;16.426;2023-03-14T05:54:41;9.50;58.70
17415;DHT22;8825;48.086;16.426;2023-03-14T05:57:08;9.50;58.90
17415;DHT22;8825;48.086;16.426;2023-03-14T05:59:36;9.40;59.10
17415;DHT22;8825;48.086;16.426;2023-03-14T06:02:03;9.40;59.30
17415;DHT22;8825;48.086;16.426;2023-03-14T06:04:31;9.40;59.40
17415;DHT22;8825;48.086;16.426;2023-03-14T06:06:58;9.40;59.60
17415;DHT22;8825;48.086;16.426;2023-03-14T06:09:26;9.40;59.60
17415;DHT22;8825;48.086;16.426;2023-03-14T06:11:54;9.30;59.80
17415;DHT22;8825;48.086;16.426;2023-03-14T06:14:21;9.40;60.00
17415;DHT22;8825;48.086;16.426;2023-03-14T06:16:49;9.40;60.20
17415;DHT22;8825;48.086;16.426;2023-03-14T06:19:17;9.40;60.20
17415;DHT22;8825;48.086;16.426;2023-03-14T06:21:44;9.40;60.20
17415;DHT22;8825;48.086;16.426;2023-03-14T06:24:12;9.40;60.30
17415;DHT22;8825;48.086;16.426;2023-03-14T06:26:39;9.40;60.40
17415;DHT22;8825;48.086;16.426;2023-03-14T06:29:10;9.50;60.50
17415;DHT22;8825;48.086;16.426;2023-03-14T06:31:37;9.50;60.50
17415;DHT22;8825;48.086;16.426;2023-03-14T06:34:05;9.50;60.70
17415;DHT22;8825;48.086;16.426;2023-03-14T06:36:33;9.60;61.00
17415;DHT22;8825;48.086;16.426;2023-03-14T06:39:00;9.60;61.10
17415;DHT22;8825;48.086;16.426;2023-03-14T06:41:28;9.60;60.50
17415;DHT22;8825;48.086;16.426;2023-03-14T06:43:55;9.60;61.10
17415;DHT22;8825;48.086;16.426;2023-03-14T06:46:23;9.70;61.00
17415;DHT22;8825;48.086;16.426;2023-03-14T06:48:50;9.70;60.90
17415;DHT22;8825;48.086;16.426;2023-03-14T06:51:18;9.80;60.90
17415;DHT22;8825;48.086;16.426;2023-03-14T06:53:45;9.90;60.90
17415;DHT22;8825;48.086;16.426;2023-03-14T06:56:13;10.00;60.70
17415;DHT22;8825;48.086;16.426;2023-03-14T06:58:40;10.10;60.50
17415;DHT22;8825;48.086;16.426;2023-03-14T07:01:17;10.10;60.70
17415;DHT22;8825;48.086;16.426;2023-03-14T07:03:38;10.20;60.70
17415;DHT22;8825;48.086;16.426;2023-03-14T07:06:06;10.20;60.60
17415;DHT22;8825;48.086;16.426;2023-03-14T07:08:33;10.30;60.70
17415;DHT22;8825;48.086;16.426;2023-03-14T07:11:01;10.30;61.00
17415;DHT22;8825;48.086;16.426;2023-03-14T07:13:28;10.40;61.70
17415;DHT22;8825;48.086;16.426;2023-03-14T07:15:56;10.40;61.90
17415;DHT22;8825;48.086;16.426;2023-03-14T07:18:23;10.40;61.80
17415;DHT22;8825;48.086;16.426;2023-03-14T07:20:51;10.50;61.30
17415;DHT22;8825;48.086;16.426;2023-03-14T07:23:18;10.50;60.90
17415;DHT22;8825;48.086;16.426;2023-03-14T07:25:46;10.50;60.90
17415;DHT22;8825;48.086;16.426;2023-03-14T07:28:14;10.60;61.10
17415;DHT22;8825;48.086;16.426;2023-03-14T07:30:41;10.70;61.10
17415;DHT22;8825;48.086;16.426;2023-03-14T07:33:09;10.80;60.80
17415;DHT22;8825;48.086;16.426;2023-03-14T07:35:37;10.90;60.60
17415;DHT22;8825;48.086;16.426;2023-03-14T07:38:05;11.00;61.50
17415;DHT22;8825;48.086;16.426;2023-03-14T07:40:32;11.10;60.50
17415;DHT22;8825;48.086;16.426;2023-03-14T07:43:00;11.20;60.40
17415;DHT22;8825;48.086;16.426;2023-03-14T07:45:27;11.30;60.40
17415;DHT22;8825;48.086;16.426;2023-03-14T07:47:55;11.30;60.50
17415;DHT22;8825;48.086;16.426;2023-03-14T07:50:25;11.30;60.90
17415;DHT22;8825;48.086;16.426;2023-03-14T07:52:55;11.30;60.70
17415;DHT22;8825;48.086;16.426;2023-03-14T07:55:22;11.40;60.70
17415;DHT22;8825;48.086;16.426;2023-03-14T07:57:50;11.40;60.40
17415;DHT22;8825;48.086;16.426;2023-03-14T08:00:18;11.50;60.20
17415;DHT22;8825;48.086;16.426;2023-03-14T08:02:45;11.60;60.10
17415;DHT22;8825;48.086;16.426;2023-03-14T08:05:13;11.50;59.90
17415;DHT22;8825;48.086;16.426;2023-03-14T08:07:40;11.50;60.30
17415;DHT22;8825;48.086;16.426;2023-03-14T08:10:09;11.50;60.10
17415;DHT22;8825;48.086;16.426;2023-03-14T08:12:36;11.50;59.80
17415;DHT22;8825;48.086;16.426;2023-03-14T08:15:04;11.40;59.90
17415;DHT22;8825;48.086;16.426;2023-03-14T08:17:32;11.50;59.90
17415;DHT22;8825;48.086;16.426;2023-03-14T08:20:00;11.50;60.10
17415;DHT22;8825;48.086;16.426;2023-03-14T08:22:27;11.50;60.00
17415;DHT22;8825;48.086;16.426;2023-03-14T08:25:14;11.50;60.00
17415;DHT22;8825;48.086;16.426;2023-03-14T08:27:42;11.60;59.60
17415;DHT22;8825;48.086;16.426;2023-03-14T08:30:12;11.70;59.70
17415;DHT22;8825;48.086;16.426;2023-03-14T08:32:40;11.80;59.80
17415;DHT22;8825;48.086;16.426;2023-03-14T08:35:08;11.80;59.70
17415;DHT22;8825;48.086;16.426;2023-03-14T08:37:36;11.90;59.90
17415;DHT22;8825;48.086;16.426;2023-03-14T08:40:05;11.90;60.10
17415;DHT22;8825;48.086;16.426;2023-03-14T08:42:33;11.90;60.00
17415;DHT22;8825;48.086;16.426;2023-03-14T08:45:01;12.00;60.10
17415;DHT22;8825;48.086;16.426;2023-03-14T08:47:29;12.10;60.10
17415;DHT22;8825;48.086;16.426;2023-03-14T08:49:57;12.10;60.00
17415;DHT22;8825;48.086;16.426;2023-03-14T08:52:25;12.20;59.80
17415;DHT22;8825;48.086;16.426;2023-03-14T08:54:52;12.20;59.60
17415;DHT22;8825;48.086;16.426;2023-03-14T08:57:20;12.30;59.60
17415;DHT22;8825;48.086;16.426;2023-03-14T08:59:48;12.30;59.50
17415;DHT22;8825;48.086;16.426;2023-03-14T09:02:15;12.40;59.40
17415;DHT22;8825;48.086;16.426;2023-03-14T09:04:43;12.50;59.20
17415;DHT22;8825;48.086;16.426;2023-03-14T09:07:11;12.50;58.90
17415;DHT22;8825;48.086;16.426;2023-03-14T09:09:38;12.60;59.00
17415;DHT22;8825;48.086;16.426;2023-03-14T09:12:06;12.60;58.90
17415;DHT22;8825;48.086;16.426;2023-03-14T09:14:34;12.50;58.40
17415;DHT22;8825;48.086;16.426;2023-03-14T09:17:02;12.50;58.30
17415;DHT22;8825;48.086;16.426;2023-03-14T09:19:30;12.40;58.30
17415;DHT22;8825;48.086;16.426;2023-03-14T09:21:57;12.40;58.20
17415;DHT22;8825;48.086;16.426;2023-03-14T09:24:25;12.40;58.20
17415;DHT22;8825;48.086;16.426;2023-03-14T09:26:52;12.30;58.20
17415;DHT22;8825;48.086;16.426;2023-03-14T09:29:22;12.40;58.80
17415;DHT22;8825;48.086;16.426;2023-03-14T09:31:51;12.50;58.20
17415;DHT22;8825;48.086;16.426;2023-03-14T09:34:18;12.60;58.00
17415;DHT22;8825;48.086;16.426;2023-03-14T09:36:46;12.60;57.80
17415;DHT22;8825;48.086;16.426;2023-03-14T09:39:14;12.70;57.70
17415;DHT22;8825;48.086;16.426;2023-03-14T09:41:46;12.80;57.60
17415;DHT22;8825;48.086;16.426;2023-03-14T09:44:28;12.80;57.50
17415;DHT22;8825;48.086;16.426;2023-03-14T09:47:00;12.90;57.60
17415;DHT22;8825;48.086;16.426;2023-03-14T09:49:35;12.90;57.60
17415;DHT22;8825;48.086;16.426;2023-03-14T09:52:19;13.00;57.70
17415;DHT22;8825;48.086;16.426;2023-03-14T09:54:57;13.00;57.60
17415;DHT22;8825;48.086;16.426;2023-03-14T09:57:27;13.10;58.20
17415;DHT22;8825;48.086;16.426;2023-03-14T10:00:03;13.10;57.60
17415;DHT22;8825;48.086;16.426;2023-03-14T10:02:39;13.20;57.60
17415;DHT22;8825;48.086;16.426;2023-03-14T10:05:17;13.30;57.90
17415;DHT22;8825;48.086;16.426;2023-03-14T10:07:45;13.30;58.20
17415;DHT22;8825;48.086;16.426;2023-03-14T10:10:21;13.40;58.20
17415;DHT22;8825;48.086;16.426;2023-03-14T10:12:57;13.50;58.20
17415;DHT22;8825;48.086;16.426;2023-03-14T10:15:30;13.70;58.00
17415;DHT22;8825;48.086;16.426;2023-03-14T10:17:58;13.80;58.00
17415;DHT22;8825;48.086;16.426;2023-03-14T10:20:30;14.00;58.10
17415;DHT22;8825;48.086;16.426;2023-03-14T10:23:06;14.00;58.00
17415;DHT22;8825;48.086;16.426;2023-03-14T10:25:36;14.10;58.00
17415;DHT22;8825;48.086;16.426;2023-03-14T10:28:09;14.20;57.80
17415;DHT22;8825;48.086;16.426;2023-03-14T10:30:45;14.20;57.70
17415;DHT22;8825;48.086;16.426;2023-03-14T10:35:52;14.20;57.30
17415;DHT22;8825;48.086;16.426;2023-03-14T10:38:17;14.20;57.20
17415;DHT22;8825;48.086;16.426;2023-03-14T10:40:47;14.20;57.20
17415;DHT22;8825;48.086;16.426;2023-03-14T10:43:25;14.20;57.20
17415;DHT22;8825;48.086;16.426;2023-03-14T10:46:01;14.30;57.30
17415;DHT22;8825;48.086;16.426;2023-03-14T10:48:32;14.30;57.30
17415;DHT22;8825;48.086;16.426;2023-03-14T10:51:03;14.30;57.30
17415;DHT22;8825;48.086;16.426;2023-03-14T10:53:45;14.30;57.30
17415;DHT22;8825;48.086;16.426;2023-03-14T10:56:18;14.30;57.30
17415;DHT22;8825;48.086;16.426;2023-03-14T10:58:49;14.30;57.40
17415;DHT22;8825;48.086;16.426;2023-03-14T11:01:37;14.30;57.50
17415;DHT22;8825;48.086;16.426;2023-03-14T11:07:14;14.30;57.70
17415;DHT22;8825;48.086;16.426;2023-03-14T11:09:46;14.30;57.70
17415;DHT22;8825;48.086;16.426;2023-03-14T11:15:00;14.30;58.50
17415;DHT22;8825;48.086;16.426;2023-03-14T11:22:50;14.40;59.30
17415;DHT22;8825;48.086;16.426;2023-03-14T11:25:30;14.50;59.10
17415;DHT22;8825;48.086;16.426;2023-03-14T11:33:08;14.50;56.80
17415;DHT22;8825;48.086;16.426;2023-03-14T11:35:49;14.50;56.60
17415;DHT22;8825;48.086;16.426;2023-03-14T11:38:46;14.50;56.40
17415;DHT22;8825;48.086;16.426;2023-03-14T11:41:20;14.50;55.90
17415;DHT22;8825;48.086;16.426;2023-03-14T11:43:49;14.50;55.50
17415;DHT22;8825;48.086;16.426;2023-03-14T11:51:41;14.60;54.90
17415;DHT22;8825;48.086;16.426;2023-03-14T11:54:15;14.60;54.60
17415;DHT22;8825;48.086;16.426;2023-03-14T11:56:51;14.60;54.30
17415;DHT22;8825;48.086;16.426;2023-03-14T12:00:22;14.60;54.00
17415;DHT22;8825;48.086;16.426;2023-03-14T12:02:01;14.60;54.00
17415;DHT22;8825;48.086;16.426;2023-03-14T12:04:46;14.60;54.00
17415;DHT22;8825;48.086;16.426;2023-03-14T12:07:20;14.70;54.00
17415;DHT22;8825;48.086;16.426;2023-03-14T12:09:49;14.80;54.00
17415;DHT22;8825;48.086;16.426;2023-03-14T12:12:24;14.80;53.70
17415;DHT22;8825;48.086;16.426;2023-03-14T12:15:00;14.90;53.30
17415;DHT22;8825;48.086;16.426;2023-03-14T12:22:49;14.80;53.00
17415;DHT22;8825;48.086;16.426;2023-03-14T12:25:19;14.70;52.80
17415;DHT22;8825;48.086;16.426;2023-03-14T12:30:29;14.70;52.90
17415;DHT22;8825;48.086;16.426;2023-03-14T12:33:29;14.70;52.90
17415;DHT22;8825;48.086;16.426;2023-03-14T12:36:02;14.70;52.90
17415;DHT22;8825;48.086;16.426;2023-03-14T12:38:51;14.60;52.40
17415;DHT22;8825;48.086;16.426;2023-03-14T12:41:19;14.60;52.50
17415;DHT22;8825;48.086;16.426;2023-03-14T12:43:46;14.50;53.10
17415;DHT22;8825;48.086;16.426;2023-03-14T12:46:22;14.50;52.60
17415;DHT22;8825;48.086;16.426;2023-03-14T12:49:05;14.50;52.60
17415;DHT22;8825;48.086;16.426;2023-03-14T12:51:38;14.40;52.60
17415;DHT22;8825;48.086;16.426;2023-03-14T12:57:22;14.40;52.80
17415;DHT22;8825;48.086;16.426;2023-03-14T12:59:51;14.30;52.70
17415;DHT22;8825;48.086;16.426;2023-03-14T13:02:37;14.30;52.50
17415;DHT22;8825;48.086;16.426;2023-03-14T13:10:22;14.20;52.70
17415;DHT22;8825;48.086;16.426;2023-03-14T13:15:48;14.10;52.80
17415;DHT22;8825;48.086;16.426;2023-03-14T13:18:14;14.10;52.80
17415;DHT22;8825;48.086;16.426;2023-03-14T13:20:51;14.10;52.80
17415;DHT22;8825;48.086;16.426;2023-03-14T13:23:24;14.10;52.90
17415;DHT22;8825;48.086;16.426;2023-03-14T13:25:52;14.10;53.00
17415;DHT22;8825;48.086;16.426;2023-03-14T13:28:20;14.00;52.90
17415;DHT22;8825;48.086;16.426;2023-03-14T13:30:49;14.00;52.90
17415;DHT22;8825;48.086;16.426;2023-03-14T13:33:19;14.00;52.90
17415;DHT22;8825;48.086;16.426;2023-03-14T13:38:21;14.00;53.10
17415;DHT22;8825;48.086;16.426;2023-03-14T13:40:51;14.00;53.10
17415;DHT22;8825;48.086;16.426;2023-03-14T13:43:24;13.90;53.10
17415;DHT22;8825;48.086;16.426;2023-03-14T13:46:16;13.90;53.20
17415;DHT22;8825;48.086;16.426;2023-03-14T13:48:49;13.90;53.30
17415;DHT22;8825;48.086;16.426;2023-03-14T13:51:19;13.90;53.50
17415;DHT22;8825;48.086;16.426;2023-03-14T13:53:53;13.90;53.50
17415;DHT22;8825;48.086;16.426;2023-03-14T13:56:22;13.90;53.60
17415;DHT22;8825;48.086;16.426;2023-03-14T13:58:50;13.80;53.50
17415;DHT22;8825;48.086;16.426;2023-03-14T14:01:27;13.80;54.00
17415;DHT22;8825;48.086;16.426;2023-03-14T14:03:57;13.80;54.40
17415;DHT22;8825;48.086;16.426;2023-03-14T14:06:45;13.70;54.60
17415;DHT22;8825;48.086;16.426;2023-03-14T14:09:19;13.70;54.90
17415;DHT22;8825;48.086;16.426;2023-03-14T14:12:05;13.70;54.90
17415;DHT22;8825;48.086;16.426;2023-03-14T14:14:42;13.60;55.10
17415;DHT22;8825;48.086;16.426;2023-03-14T14:17:16;13.60;55.40
17415;DHT22;8825;48.086;16.426;2023-03-14T14:19:44;13.60;55.70
17415;DHT22;8825;48.086;16.426;2023-03-14T14:22:12;13.60;55.90
17415;DHT22;8825;48.086;16.426;2023-03-14T14:24:41;13.50;56.40
17415;DHT22;8825;48.086;16.426;2023-03-14T14:29:39;13.40;57.40
17415;DHT22;8825;48.086;16.426;2023-03-14T14:37:25;13.40;57.80
17415;DHT22;8825;48.086;16.426;2023-03-14T14:39:56;13.30;57.90
17415;DHT22;8825;48.086;16.426;2023-03-14T14:42:31;13.30;57.90
17415;DHT22;8825;48.086;16.426;2023-03-14T14:45:01;13.40;58.30
17415;DHT22;8825;48.086;16.426;2023-03-14T14:47:29;13.30;58.20
17415;DHT22;8825;48.086;16.426;2023-03-14T14:49:59;13.30;58.80
17415;DHT22;8825;48.086;16.426;2023-03-14T14:52:40;13.40;58.50
17415;DHT22;8825;48.086;16.426;2023-03-14T14:55:19;13.40;58.70
17415;DHT22;8825;48.086;16.426;2023-03-14T14:57:54;13.40;59.00
17415;DHT22;8825;48.086;16.426;2023-03-14T15:00:26;13.30;59.20
17415;DHT22;8825;48.086;16.426;2023-03-14T15:02:58;13.30;59.40
17415;DHT22;8825;48.086;16.426;2023-03-14T15:05:28;13.30;59.40
17415;DHT22;8825;48.086;16.426;2023-03-14T15:07:57;13.30;59.30
17415;DHT22;8825;48.086;16.426;2023-03-14T15:10:26;13.30;59.40
17415;DHT22;8825;48.086;16.426;2023-03-14T15:12:53;13.30;59.30
17415;DHT22;8825;48.086;16.426;2023-03-14T15:15:21;13.40;59.30
17415;DHT22;8825;48.086;16.426;2023-03-14T15:17:48;13.40;59.40
17415;DHT22;8825;48.086;16.426;2023-03-14T15:20:17;13.40;59.50
17415;DHT22;8825;48.086;16.426;2023-03-14T15:22:46;13.40;59.50
17415;DHT22;8825;48.086;16.426;2023-03-14T15:25:14;13.40;59.50
17415;DHT22;8825;48.086;16.426;2023-03-14T15:27:41;13.40;59.70
17415;DHT22;8825;48.086;16.426;2023-03-14T15:30:14;13.40;59.90
17415;DHT22;8825;48.086;16.426;2023-03-14T15:32:42;13.30;60.20
17415;DHT22;8825;48.086;16.426;2023-03-14T15:35:09;13.30;60.30
17415;DHT22;8825;48.086;16.426;2023-03-14T15:37:37;13.20;60.90
17415;DHT22;8825;48.086;16.426;2023-03-14T15:40:05;13.10;61.60
17415;DHT22;8825;48.086;16.426;2023-03-14T15:42:35;13.00;61.90
17415;DHT22;8825;48.086;16.426;2023-03-14T15:45:02;12.90;62.90
17415;DHT22;8825;48.086;16.426;2023-03-14T15:47:30;12.80;63.70
17415;DHT22;8825;48.086;16.426;2023-03-14T15:49:58;12.80;63.70
17415;DHT22;8825;48.086;16.426;2023-03-14T15:52:26;12.80;64.10
17415;DHT22;8825;48.086;16.426;2023-03-14T15:54:53;12.80;64.20
17415;DHT22;8825;48.086;16.426;2023-03-14T15:57:21;12.80;64.10
17415;DHT22;8825;48.086;16.426;2023-03-14T15:59:48;12.80;63.80
17415;DHT22;8825;48.086;16.426;2023-03-14T16:02:16;12.80;63.80
17415;DHT22;8825;48.086;16.426;2023-03-14T16:04:43;12.80;63.70
17415;DHT22;8825;48.086;16.426;2023-03-14T16:07:11;12.80;63.70
17415;DHT22;8825;48.086;16.426;2023-03-14T16:09:38;12.80;63.70
17415;DHT22;8825;48.086;16.426;2023-03-14T16:12:06;12.80;63.70
17415;DHT22;8825;48.086;16.426;2023-03-14T16:14:35;12.80;63.60
17415;DHT22;8825;48.086;16.426;2023-03-14T16:17:02;12.70;63.50
17415;DHT22;8825;48.086;16.426;2023-03-14T16:19:32;12.80;63.50
17415;DHT22;8825;48.086;16.426;2023-03-14T16:21:59;12.80;63.30
17415;DHT22;8825;48.086;16.426;2023-03-14T16:24:28;12.80;63.10
17415;DHT22;8825;48.086;16.426;2023-03-14T16:26:55;12.90;63.10
17415;DHT22;8825;48.086;16.426;2023-03-14T16:29:23;12.90;63.20
17415;DHT22;8825;48.086;16.426;2023-03-14T16:31:50;12.90;63.50
17415;DHT22;8825;48.086;16.426;2023-03-14T16:34:17;12.90;63.70
17415;DHT22;8825;48.086;16.426;2023-03-14T16:36:45;12.80;63.50
17415;DHT22;8825;48.086;16.426;2023-03-14T16:39:13;12.80;63.50
17415;DHT22;8825;48.086;16.426;2023-03-14T16:41:41;12.80;63.70
17415;DHT22;8825;48.086;16.426;2023-03-14T16:44:08;12.80;63.80
17415;DHT22;8825;48.086;16.426;2023-03-14T16:46:36;12.80;63.80
17415;DHT22;8825;48.086;16.426;2023-03-14T16:49:04;12.70;64.00
17415;DHT22;8825;48.086;16.426;2023-03-14T16:51:32;12.70;64.00
17415;DHT22;8825;48.086;16.426;2023-03-14T16:54:00;12.70;64.20
17415;DHT22;8825;48.086;16.426;2023-03-14T16:56:27;12.60;64.10
17415;DHT22;8825;48.086;16.426;2023-03-14T16:58:55;12.70;64.10